createdAt,value
2023-03-30T00:01:00.302Z,10
2023-03-30T00:02:07.214Z,7
2023-03-30T00:03:14.142Z,8
2023-03-30T00:04:20.978Z,9
2023-03-30T00:05:27.822Z,7
2023-03-30T00:06:34.733Z,8
2023-03-30T00:07:41.620Z,7
2023-03-30T00:08:48.401Z,7
2023-03-30T00:10:00.278Z,7
2023-03-30T00:11:07.440Z,8
2023-03-30T00:12:14.152Z,8
2023-03-30T00:13:21.018Z,7
2023-03-30T00:14:28.045Z,8
2023-03-30T00:15:34.818Z,9
2023-03-30T00:16:41.678Z,8
2023-03-30T00:17:48.567Z,10
2023-03-30T00:18:55.372Z,9
2023-03-30T00:20:02.261Z,9
2023-03-30T00:21:09.538Z,8
2023-03-30T00:22:16.388Z,8
2023-03-30T00:23:23.213Z,8
2023-03-30T00:24:30.078Z,9
2023-03-30T00:25:36.977Z,8
2023-03-30T00:26:43.916Z,9
2023-03-30T00:27:50.730Z,9
2023-03-30T00:28:57.563Z,8
2023-03-30T00:30:04.403Z,8
2023-03-30T00:31:11.429Z,8
2023-03-30T00:32:18.280Z,7
2023-03-30T00:33:33.894Z,9
2023-03-30T00:34:32.022Z,9
2023-03-30T00:35:38.903Z,9
2023-03-30T00:36:45.756Z,8
2023-03-30T00:37:52.737Z,9
2023-03-30T00:38:59.563Z,10
2023-03-30T00:40:09.507Z,9
2023-03-30T00:41:16.590Z,8
2023-03-30T00:42:23.471Z,9
2023-03-30T00:43:30.361Z,8
2023-03-30T00:44:37.174Z,9
2023-03-30T00:45:54.161Z,8
2023-03-30T00:47:00.957Z,9
2023-03-30T00:48:07.906Z,10
2023-03-30T00:49:17.607Z,8
2023-03-30T00:50:24.692Z,7
2023-03-30T00:51:34.645Z,9
2023-03-30T00:52:41.519Z,8
2023-03-30T00:53:48.372Z,7
2023-03-30T00:54:55.163Z,10
2023-03-30T00:56:02.021Z,7
2023-03-30T00:57:09.024Z,9
2023-03-30T00:58:15.874Z,7
2023-03-30T00:59:22.694Z,8
2023-03-30T01:00:29.640Z,9
2023-03-30T01:01:36.526Z,7
2023-03-30T01:02:43.413Z,9
2023-03-30T01:03:50.352Z,8
2023-03-30T01:04:59.930Z,9
2023-03-30T01:06:06.919Z,7
2023-03-30T01:07:13.734Z,8
2023-03-30T01:08:20.595Z,7
2023-03-30T01:09:27.426Z,8
2023-03-30T01:10:34.337Z,8
2023-03-30T01:11:41.218Z,8
2023-03-30T01:12:48.010Z,10
2023-03-30T01:13:54.820Z,8
2023-03-30T01:15:04.499Z,9
2023-03-30T01:16:11.526Z,8
2023-03-30T01:17:28.355Z,7
2023-03-30T01:18:35.132Z,8
2023-03-30T01:19:49.988Z,8
2023-03-30T01:21:01.987Z,11
2023-03-30T01:22:18.867Z,8
2023-03-30T01:23:30.831Z,8
2023-03-30T01:24:47.732Z,8
2023-03-30T01:26:04.732Z,9
2023-03-30T01:27:21.741Z,9
2023-03-30T01:28:33.648Z,7
2023-03-30T01:29:48.430Z,9
2023-03-30T01:30:55.323Z,6
2023-03-30T01:32:12.256Z,7
2023-03-30T01:33:26.947Z,7
2023-03-30T01:34:43.843Z,8
2023-03-30T01:36:00.788Z,8
2023-03-30T01:37:17.693Z,7
2023-03-30T01:38:34.746Z,7
2023-03-30T01:39:51.667Z,8
2023-03-30T01:41:06.527Z,7
2023-03-30T01:42:21.430Z,8
2023-03-30T01:43:33.310Z,8
2023-03-30T01:44:47.811Z,9
2023-03-30T01:45:57.634Z,7
2023-03-30T01:47:04.667Z,7
2023-03-30T01:48:21.417Z,7
2023-03-30T01:49:34.206Z,6
2023-03-30T01:50:46.020Z,7
2023-03-30T01:51:52.885Z,7
2023-03-30T01:53:07.868Z,8
2023-03-30T01:54:17.612Z,7
2023-03-30T01:55:27.221Z,10
2023-03-30T01:56:42.028Z,6
2023-03-30T01:57:51.670Z,8
2023-03-30T01:59:03.489Z,7
2023-03-30T02:00:15.428Z,6
2023-03-30T02:01:22.384Z,6
2023-03-30T02:02:29.206Z,7
2023-03-30T02:03:36.085Z,7
2023-03-30T02:04:42.863Z,7
2023-03-30T02:05:49.698Z,6
2023-03-30T02:06:56.550Z,7
2023-03-30T02:08:06.087Z,7
2023-03-30T02:09:12.907Z,7
2023-03-30T02:10:19.720Z,7
2023-03-30T02:11:26.481Z,6
2023-03-30T02:12:33.354Z,7
2023-03-30T02:13:40.134Z,7
2023-03-30T02:14:46.956Z,7
2023-03-30T02:15:53.931Z,9
2023-03-30T02:17:00.782Z,9
2023-03-30T02:18:12.716Z,8
2023-03-30T02:19:19.517Z,6
2023-03-30T02:20:26.447Z,7
2023-03-30T02:21:33.313Z,6
2023-03-30T02:22:40.127Z,7
2023-03-30T02:23:46.930Z,6
2023-03-30T02:24:53.727Z,7
2023-03-30T02:26:00.632Z,7
2023-03-30T02:27:07.405Z,7
2023-03-30T02:28:14.211Z,8
2023-03-30T02:29:21.174Z,8
2023-03-30T02:30:28.033Z,8
2023-03-30T02:31:34.815Z,8
2023-03-30T02:32:41.736Z,8
2023-03-30T02:33:56.554Z,8
2023-03-30T02:35:11.536Z,8
2023-03-30T02:36:26.364Z,7
2023-03-30T02:37:43.406Z,10
2023-03-30T02:38:57.898Z,8
2023-03-30T02:40:12.516Z,7
2023-03-30T02:41:27.270Z,7
2023-03-30T02:42:34.222Z,7
2023-03-30T02:43:43.880Z,7
2023-03-30T02:44:53.454Z,7
2023-03-30T02:46:03.554Z,7
2023-03-30T02:47:15.391Z,7
2023-03-30T02:48:25.006Z,7
2023-03-30T02:49:36.834Z,8
2023-03-30T02:50:43.684Z,7
2023-03-30T02:51:58.630Z,6
2023-03-30T02:53:13.288Z,7
2023-03-30T02:54:25.131Z,6
2023-03-30T02:55:32.113Z,8
2023-03-30T02:56:43.996Z,7
2023-03-30T02:57:50.768Z,6
2023-03-30T02:59:02.655Z,7
2023-03-30T03:00:14.482Z,7
2023-03-30T03:01:26.388Z,6
2023-03-30T03:02:36.050Z,6
2023-03-30T03:03:45.423Z,7
2023-03-30T03:04:52.228Z,6
2023-03-30T03:05:59.079Z,6
2023-03-30T03:07:05.898Z,7
2023-03-30T03:08:12.655Z,6
2023-03-30T03:09:19.462Z,7
2023-03-30T03:10:29.360Z,7
2023-03-30T03:11:36.100Z,7
2023-03-30T03:12:42.913Z,8
2023-03-30T03:13:49.849Z,6
2023-03-30T03:14:56.633Z,6
2023-03-30T03:16:04.258Z,7
2023-03-30T03:17:10.274Z,6
2023-03-30T03:18:17.045Z,8
2023-03-30T03:19:23.872Z,7
2023-03-30T03:20:30.793Z,7
2023-03-30T03:21:37.471Z,7
2023-03-30T03:22:44.274Z,8
2023-03-30T03:23:51.011Z,8
2023-03-30T03:24:57.874Z,11
2023-03-30T03:26:04.713Z,8
2023-03-30T03:27:11.620Z,9
2023-03-30T03:28:18.430Z,8
2023-03-30T03:29:25.192Z,9
2023-03-30T03:30:32.050Z,8
2023-03-30T03:31:38.866Z,7
2023-03-30T03:32:45.750Z,7
2023-03-30T03:33:52.554Z,7
2023-03-30T03:34:59.334Z,7
2023-03-30T03:36:06.352Z,7
2023-03-30T03:37:13.075Z,6
2023-03-30T03:38:19.851Z,7
2023-03-30T03:39:26.647Z,7
2023-03-30T03:40:33.495Z,7
2023-03-30T03:41:40.412Z,8
2023-03-30T03:42:47.313Z,8
2023-03-30T03:43:54.067Z,10
2023-03-30T03:45:00.804Z,9
2023-03-30T03:46:07.865Z,11
2023-03-30T03:47:16.533Z,10
2023-03-30T03:48:21.478Z,10
2023-03-30T03:49:28.279Z,10
2023-03-30T03:50:35.049Z,9
2023-03-30T03:51:41.812Z,7
2023-03-30T03:52:48.731Z,11
2023-03-30T03:53:55.752Z,11
2023-03-30T03:55:02.538Z,8
2023-03-30T03:56:09.534Z,8
2023-03-30T03:57:16.286Z,8
2023-03-30T03:58:23.225Z,7
2023-03-30T03:59:30.075Z,8
2023-03-30T04:00:36.875Z,9
2023-03-30T04:01:43.670Z,8
2023-03-30T04:02:50.457Z,8
2023-03-30T04:03:57.207Z,9
2023-03-30T04:05:04.133Z,9
2023-03-30T04:06:10.851Z,11
2023-03-30T04:07:17.610Z,11
2023-03-30T04:08:24.405Z,11
2023-03-30T04:09:31.260Z,11
2023-03-30T04:10:38.175Z,9
2023-03-30T04:11:44.942Z,8
2023-03-30T04:12:51.726Z,9
2023-03-30T04:13:58.463Z,9
2023-03-30T04:15:05.275Z,8
2023-03-30T04:16:12.283Z,9
2023-03-30T04:17:19.016Z,8
2023-03-30T04:18:25.742Z,10
2023-03-30T04:19:32.490Z,8
2023-03-30T04:20:39.240Z,7
2023-03-30T04:21:46.167Z,9
2023-03-30T04:22:52.912Z,8
2023-03-30T04:23:59.665Z,9
2023-03-30T04:25:06.598Z,8
2023-03-30T04:26:13.408Z,7
2023-03-30T04:27:20.279Z,8
2023-03-30T04:28:27.036Z,9
2023-03-30T04:29:33.853Z,8
2023-03-30T04:30:40.700Z,9
2023-03-30T04:31:47.501Z,8
2023-03-30T04:32:54.372Z,8
2023-03-30T04:34:06.174Z,8
2023-03-30T04:35:13.001Z,8
2023-03-30T04:36:19.792Z,13
2023-03-30T04:37:26.529Z,13
2023-03-30T04:38:33.340Z,12
2023-03-30T04:39:40.088Z,13
2023-03-30T04:40:46.946Z,12
2023-03-30T04:41:53.788Z,12
2023-03-30T04:43:00.544Z,12
2023-03-30T04:44:07.384Z,14
2023-03-30T04:45:14.121Z,14
2023-03-30T04:46:23.618Z,12
2023-03-30T04:47:30.744Z,14
2023-03-30T04:48:37.872Z,11
2023-03-30T04:49:44.794Z,11
2023-03-30T04:50:51.669Z,11
2023-03-30T04:51:58.338Z,11
2023-03-30T04:53:05.230Z,11
2023-03-30T04:54:11.995Z,12
2023-03-30T04:55:18.821Z,11
2023-03-30T04:56:25.638Z,9
2023-03-30T04:57:32.386Z,10
2023-03-30T04:58:39.266Z,12
2023-03-30T04:59:46.931Z,12
2023-03-30T05:00:53.749Z,10
2023-03-30T05:02:00.552Z,9
2023-03-30T05:03:07.377Z,11
2023-03-30T05:04:14.219Z,10
2023-03-30T05:05:20.962Z,12
2023-03-30T05:06:28.108Z,12
2023-03-30T05:07:35.100Z,11
2023-03-30T05:08:42.000Z,12
2023-03-30T05:09:48.726Z,12
2023-03-30T05:10:55.623Z,13
2023-03-30T05:12:05.206Z,12
2023-03-30T05:13:12.051Z,12
2023-03-30T05:14:18.829Z,13
2023-03-30T05:15:25.551Z,12
2023-03-30T05:16:32.359Z,13
2023-03-30T05:17:39.194Z,17
2023-03-30T05:18:45.981Z,15
2023-03-30T05:19:53.262Z,14
2023-03-30T05:21:00.228Z,13
2023-03-30T05:22:07.074Z,15
2023-03-30T05:23:13.955Z,13
2023-03-30T05:24:20.816Z,13
2023-03-30T05:25:27.690Z,14
2023-03-30T05:26:34.530Z,12
2023-03-30T05:27:41.219Z,14
2023-03-30T05:28:48.097Z,13
2023-03-30T05:29:55.103Z,14
2023-03-30T05:31:02.301Z,12
2023-03-30T05:32:08.903Z,12
2023-03-30T05:33:15.661Z,12
2023-03-30T05:34:22.423Z,13
2023-03-30T05:35:29.301Z,11
2023-03-30T05:36:36.078Z,12
2023-03-30T05:37:42.940Z,10
2023-03-30T05:38:49.662Z,9
2023-03-30T05:39:56.449Z,13
2023-03-30T05:41:03.444Z,10
2023-03-30T05:42:10.085Z,10
2023-03-30T05:43:16.900Z,11
2023-03-30T05:44:23.672Z,10
2023-03-30T05:45:30.461Z,16
2023-03-30T05:46:37.380Z,12
2023-03-30T05:47:44.183Z,12
2023-03-30T05:48:50.968Z,14
2023-03-30T05:49:57.648Z,14
2023-03-30T05:51:04.557Z,15
2023-03-30T05:52:11.267Z,17
2023-03-30T05:53:18.004Z,15
2023-03-30T05:54:24.751Z,16
2023-03-30T05:55:31.587Z,18
2023-03-30T05:56:39.196Z,18
2023-03-30T05:57:47.442Z,18
2023-03-30T05:58:54.327Z,15
2023-03-30T06:00:01.075Z,17
2023-03-30T06:01:08.220Z,19
2023-03-30T06:02:15.052Z,20
2023-03-30T06:03:21.885Z,19
2023-03-30T06:04:28.666Z,16
2023-03-30T06:05:35.408Z,17
2023-03-30T06:06:42.251Z,17
2023-03-30T06:07:48.975Z,17
2023-03-30T06:08:55.756Z,20
2023-03-30T06:10:02.763Z,16
2023-03-30T06:11:09.747Z,16
2023-03-30T06:12:16.523Z,16
2023-03-30T06:13:23.288Z,17
2023-03-30T06:14:30.040Z,15
2023-03-30T06:15:36.877Z,14
2023-03-30T06:16:43.751Z,16
2023-03-30T06:17:50.599Z,14
2023-03-30T06:18:57.402Z,15
2023-03-30T06:20:04.245Z,15
2023-03-30T06:21:11.520Z,13
2023-03-30T06:22:18.365Z,14
2023-03-30T06:23:25.163Z,14
2023-03-30T06:24:32.015Z,12
2023-03-30T06:25:38.779Z,15
2023-03-30T06:26:45.655Z,12
2023-03-30T06:27:52.438Z,12
2023-03-30T06:28:59.217Z,14
2023-03-30T06:30:06.039Z,12
2023-03-30T06:31:13.131Z,14
2023-03-30T06:32:19.923Z,13
2023-03-30T06:33:26.787Z,12
2023-03-30T06:34:33.541Z,13
2023-03-30T06:35:40.364Z,13
2023-03-30T06:36:49.614Z,12
2023-03-30T06:37:56.371Z,12
2023-03-30T06:39:05.300Z,12
2023-03-30T06:40:10.101Z,9
2023-03-30T06:41:17.364Z,10
2023-03-30T06:42:24.532Z,10
2023-03-30T06:43:31.291Z,11
2023-03-30T06:44:38.461Z,11
2023-03-30T06:46:43.529Z,11
2023-03-30T06:48:48.531Z,11
2023-03-30T06:50:44.854Z,11
2023-03-30T06:51:51.653Z,12
2023-03-30T06:52:58.497Z,10
2023-03-30T06:54:05.371Z,13
2023-03-30T06:55:12.168Z,13
2023-03-30T06:56:18.953Z,11
2023-03-30T06:57:25.786Z,10
2023-03-30T06:58:32.579Z,12
2023-03-30T06:59:39.451Z,13
2023-03-30T07:00:46.293Z,11
2023-03-30T07:01:53.352Z,13
2023-03-30T07:03:00.041Z,13
2023-03-30T07:04:06.821Z,12
2023-03-30T07:05:13.573Z,14
2023-03-30T07:06:21.116Z,12
2023-03-30T07:07:27.129Z,12
2023-03-30T07:08:33.865Z,10
2023-03-30T07:09:40.626Z,11
2023-03-30T07:10:47.429Z,11
2023-03-30T07:11:56.260Z,13
2023-03-30T07:13:01.153Z,11
2023-03-30T07:14:08.006Z,12
2023-03-30T07:15:14.802Z,11
2023-03-30T07:16:21.806Z,12
2023-03-30T07:17:28.517Z,10
2023-03-30T07:18:35.297Z,10
2023-03-30T07:19:42.144Z,14
2023-03-30T07:20:48.905Z,9
2023-03-30T07:21:56.814Z,11
2023-03-30T07:23:04.221Z,13
2023-03-30T07:24:11.007Z,13
2023-03-30T07:25:17.866Z,10
2023-03-30T07:26:24.677Z,17
2023-03-30T07:27:31.479Z,15
2023-03-30T07:28:38.359Z,14
2023-03-30T07:29:45.185Z,15
2023-03-30T07:30:51.984Z,12
2023-03-30T07:31:58.852Z,13
2023-03-30T07:33:05.774Z,13
2023-03-30T07:34:12.532Z,15
2023-03-30T07:35:19.383Z,13
2023-03-30T07:36:26.308Z,12
2023-03-30T07:37:33.115Z,13
2023-03-30T07:38:39.970Z,14
2023-03-30T07:39:46.745Z,11
2023-03-30T07:40:53.567Z,13
2023-03-30T07:42:00.480Z,12
2023-03-30T07:43:07.505Z,13
2023-03-30T07:44:14.225Z,14
2023-03-30T07:45:21.010Z,16
2023-03-30T07:46:27.797Z,13
2023-03-30T07:47:34.581Z,15
2023-03-30T07:48:41.345Z,16
2023-03-30T07:49:48.186Z,13
2023-03-30T07:50:55.050Z,14
2023-03-30T07:52:05.045Z,13
2023-03-30T07:53:11.928Z,17
2023-03-30T07:54:18.705Z,12
2023-03-30T07:55:25.521Z,10
2023-03-30T07:56:32.492Z,11
2023-03-30T07:57:39.282Z,11
2023-03-30T07:58:46.055Z,9
2023-03-30T07:59:52.892Z,9
2023-03-30T08:00:59.722Z,9
2023-03-30T08:02:06.456Z,12
2023-03-30T08:03:13.295Z,12
2023-03-30T08:04:20.083Z,8
2023-03-30T08:05:26.801Z,9
2023-03-30T08:06:33.547Z,10
2023-03-30T08:07:40.437Z,8
2023-03-30T08:08:47.214Z,10
2023-03-30T08:09:54.056Z,9
2023-03-30T08:11:00.933Z,10
2023-03-30T08:12:07.766Z,9
2023-03-30T08:13:14.659Z,8
2023-03-30T08:14:21.472Z,10
2023-03-30T08:15:28.271Z,10
2023-03-30T08:16:35.076Z,8
2023-03-30T08:17:41.872Z,9
2023-03-30T08:18:48.685Z,12
2023-03-30T08:19:55.465Z,9
2023-03-30T08:21:02.668Z,8
2023-03-30T08:22:09.132Z,8
2023-03-30T08:23:19.086Z,9
2023-03-30T08:24:26.093Z,10
2023-03-30T08:25:32.849Z,9
2023-03-30T08:26:39.685Z,9
2023-03-30T08:27:46.464Z,11
2023-03-30T08:28:53.241Z,8
2023-03-30T08:30:00.061Z,9
2023-03-30T08:31:07.211Z,8
2023-03-30T08:32:13.913Z,8
2023-03-30T08:33:20.770Z,7
2023-03-30T08:34:27.505Z,7
2023-03-30T08:35:34.328Z,9
2023-03-30T08:36:41.183Z,9
2023-03-30T08:37:47.909Z,8
2023-03-30T08:38:54.679Z,8
2023-03-30T08:40:01.565Z,7
2023-03-30T08:41:11.242Z,7
2023-03-30T08:42:28.123Z,8
2023-03-30T08:43:40.073Z,7
2023-03-30T08:44:51.893Z,8
2023-03-30T08:45:58.793Z,9
2023-03-30T08:47:05.481Z,7
2023-03-30T08:48:12.235Z,8
2023-03-30T08:49:19.063Z,6
2023-03-30T08:50:26.054Z,8
2023-03-30T08:51:37.908Z,8
2023-03-30T08:52:44.789Z,9
2023-03-30T08:53:51.557Z,8
2023-03-30T08:54:58.295Z,7
2023-03-30T08:56:05.135Z,8
2023-03-30T08:57:11.933Z,9
2023-03-30T08:58:18.700Z,8
2023-03-30T08:59:33.247Z,9
2023-03-30T09:00:50.323Z,8
2023-03-30T09:01:57.128Z,8
2023-03-30T09:03:14.101Z,13
2023-03-30T09:04:31.000Z,9
2023-03-30T09:05:40.878Z,11
2023-03-30T09:06:52.840Z,9
2023-03-30T09:08:04.747Z,9
2023-03-30T09:09:16.586Z,10
2023-03-30T09:10:26.445Z,15
2023-03-30T09:11:35.743Z,9
2023-03-30T09:12:40.252Z,10
2023-03-30T09:13:53.801Z,12
2023-03-30T09:15:00.587Z,8
2023-03-30T09:16:15.084Z,10
2023-03-30T09:17:32.043Z,17
2023-03-30T09:18:41.924Z,12
2023-03-30T09:19:48.705Z,14
2023-03-30T09:21:00.669Z,16
2023-03-30T09:22:07.715Z,19
2023-03-30T09:23:14.492Z,12
2023-03-30T09:24:21.301Z,10
2023-03-30T09:25:28.052Z,12
2023-03-30T09:26:34.857Z,7
2023-03-30T09:27:44.510Z,9
2023-03-30T09:28:59.092Z,7
2023-03-30T09:30:13.488Z,7
2023-03-30T09:31:21.903Z,9
2023-03-30T09:32:32.163Z,6
2023-03-30T09:33:43.949Z,8
2023-03-30T09:34:58.619Z,7
2023-03-30T09:36:08.212Z,7
2023-03-30T09:37:22.706Z,7
2023-03-30T09:38:29.518Z,9
2023-03-30T09:39:36.367Z,9
2023-03-30T09:40:43.290Z,7
2023-03-30T09:41:52.900Z,7
2023-03-30T09:43:07.277Z,8
2023-03-30T09:44:21.944Z,7
2023-03-30T09:45:36.529Z,10
2023-03-30T09:46:43.361Z,9
2023-03-30T09:47:50.168Z,11
2023-03-30T09:48:56.905Z,8
2023-03-30T09:50:14.036Z,9
2023-03-30T09:51:25.872Z,7
2023-03-30T09:52:32.669Z,8
2023-03-30T09:53:39.554Z,11
2023-03-30T09:54:46.679Z,7
2023-03-30T09:55:53.497Z,8
2023-03-30T09:57:03.287Z,13
2023-03-30T09:58:10.118Z,11
2023-03-30T09:59:21.900Z,9
2023-03-30T10:00:31.215Z,6
2023-03-30T10:01:38.274Z,9
2023-03-30T10:02:45.143Z,10
2023-03-30T10:03:57.000Z,9
2023-03-30T10:05:11.396Z,10
2023-03-30T10:06:18.194Z,11
2023-03-30T10:07:24.964Z,12
2023-03-30T10:08:36.809Z,11
2023-03-30T10:09:46.267Z,9
2023-03-30T10:10:53.104Z,9
2023-03-30T10:11:59.988Z,10
2023-03-30T10:13:06.827Z,9
2023-03-30T10:14:16.339Z,7
2023-03-30T10:15:28.093Z,8
2023-03-30T10:16:34.875Z,8
2023-03-30T10:17:41.638Z,9
2023-03-30T10:18:48.350Z,8
2023-03-30T10:20:07.457Z,11
2023-03-30T10:21:14.835Z,8
2023-03-30T10:22:21.651Z,10
2023-03-30T10:23:28.481Z,10
2023-03-30T10:24:35.264Z,8
2023-03-30T10:25:42.221Z,7
2023-03-30T10:26:49.125Z,8
2023-03-30T10:27:56.016Z,9
2023-03-30T10:29:02.768Z,9
2023-03-30T10:30:09.614Z,9
2023-03-30T10:31:16.533Z,10
2023-03-30T10:32:23.435Z,10
2023-03-30T10:33:30.376Z,9
2023-03-30T10:34:42.190Z,7
2023-03-30T10:35:49.081Z,12
2023-03-30T10:36:58.410Z,9
2023-03-30T10:38:05.237Z,10
2023-03-30T10:39:12.036Z,14
2023-03-30T10:40:26.770Z,14
2023-03-30T10:41:39.303Z,13
2023-03-30T10:42:46.022Z,12
2023-03-30T10:43:52.843Z,16
2023-03-30T10:44:59.608Z,11
2023-03-30T10:46:16.674Z,12
2023-03-30T10:47:21.186Z,10
2023-03-30T10:48:32.918Z,10
2023-03-30T10:49:44.754Z,9
2023-03-30T10:51:01.622Z,11
2023-03-30T10:52:13.482Z,10
2023-03-30T10:53:26.158Z,10
2023-03-30T10:54:43.085Z,13
2023-03-30T10:55:52.896Z,8
2023-03-30T10:57:04.710Z,11
2023-03-30T10:58:14.190Z,9
2023-03-30T10:59:26.061Z,10
2023-03-30T11:00:43.056Z,11
2023-03-30T11:01:53.035Z,11
2023-03-30T11:03:09.909Z,9
2023-03-30T11:04:24.672Z,8
2023-03-30T11:05:36.413Z,11
2023-03-30T11:06:43.154Z,9
2023-03-30T11:07:49.877Z,10
2023-03-30T11:09:01.878Z,9
2023-03-30T11:10:08.662Z,9
2023-03-30T11:11:18.194Z,10
2023-03-30T11:12:25.018Z,8
2023-03-30T11:13:31.813Z,10
2023-03-30T11:14:38.743Z,10
2023-03-30T11:15:55.649Z,10
2023-03-30T11:17:05.090Z,10
2023-03-30T11:18:14.746Z,10
2023-03-30T11:19:26.528Z,11
2023-03-30T11:20:41.232Z,9
2023-03-30T11:21:58.199Z,10
2023-03-30T11:23:15.155Z,10
2023-03-30T11:24:21.938Z,11
2023-03-30T11:25:28.798Z,9
2023-03-30T11:26:40.821Z,9
2023-03-30T11:27:57.817Z,11
2023-03-30T11:29:09.689Z,9
2023-03-30T11:30:26.532Z,14
2023-03-30T11:31:33.443Z,11
2023-03-30T11:32:47.994Z,9
2023-03-30T11:33:59.740Z,9
2023-03-30T11:35:14.502Z,9
2023-03-30T11:36:31.323Z,10
2023-03-30T11:37:43.175Z,8
2023-03-30T11:38:52.743Z,10
2023-03-30T11:40:04.599Z,10
2023-03-30T11:41:16.482Z,9
2023-03-30T11:42:23.295Z,8
2023-03-30T11:43:33.114Z,9
2023-03-30T11:44:39.878Z,11
2023-03-30T11:45:46.731Z,8
2023-03-30T11:46:58.485Z,10
2023-03-30T11:48:10.429Z,8
2023-03-30T11:49:27.139Z,9
2023-03-30T11:50:45.752Z,10
2023-03-30T11:51:56.367Z,9
2023-03-30T11:53:13.196Z,10
2023-03-30T11:54:30.123Z,9
2023-03-30T11:55:44.893Z,10
2023-03-30T11:56:51.693Z,10
2023-03-30T11:58:08.583Z,10
2023-03-30T11:59:20.545Z,9
2023-03-30T12:00:27.383Z,11
2023-03-30T12:01:44.328Z,9
2023-03-30T12:02:58.664Z,10
2023-03-30T12:04:13.508Z,13
2023-03-30T12:05:20.308Z,12
2023-03-30T12:06:29.929Z,15
2023-03-30T12:07:36.830Z,12
2023-03-30T12:08:51.722Z,15
2023-03-30T12:10:08.346Z,12
2023-03-30T12:11:11.590Z,12
2023-03-30T12:12:21.632Z,10
2023-03-30T12:13:35.706Z,12
2023-03-30T12:14:35.341Z,14
2023-03-30T12:15:47.365Z,12
2023-03-30T12:16:54.170Z,10
2023-03-30T12:18:00.942Z,10
2023-03-30T12:19:12.753Z,13
2023-03-30T12:20:19.530Z,12
2023-03-30T12:21:31.396Z,13
2023-03-30T12:22:46.242Z,13
2023-03-30T12:24:00.658Z,11
2023-03-30T12:25:07.491Z,12
2023-03-30T12:26:22.170Z,12
2023-03-30T12:27:31.960Z,10
2023-03-30T12:28:54.231Z,12
2023-03-30T12:30:58.289Z,11
2023-03-30T12:32:05.419Z,10
2023-03-30T12:33:12.046Z,14
2023-03-30T12:34:18.982Z,11
2023-03-30T12:35:25.820Z,12
2023-03-30T12:36:42.704Z,15
2023-03-30T12:37:49.532Z,10
2023-03-30T12:38:56.380Z,10
2023-03-30T12:40:05.739Z,11
2023-03-30T12:41:17.555Z,13
2023-03-30T12:42:24.326Z,15
2023-03-30T12:43:36.857Z,12
2023-03-30T12:44:53.763Z,9
2023-03-30T12:46:00.962Z,10
2023-03-30T12:47:09.596Z,11
2023-03-30T12:48:25.397Z,10
2023-03-30T12:49:37.256Z,11
2023-03-30T12:50:51.951Z,11
2023-03-30T12:52:04.094Z,13
2023-03-30T12:53:16.658Z,12
2023-03-30T12:54:34.089Z,9
2023-03-30T12:55:49.236Z,12
2023-03-30T12:57:07.510Z,13
2023-03-30T12:58:17.336Z,11
2023-03-30T12:59:30.699Z,10
2023-03-30T13:00:44.330Z,12
2023-03-30T13:01:51.116Z,11
2023-03-30T13:03:00.561Z,15
2023-03-30T13:04:12.341Z,12
2023-03-30T13:05:25.065Z,11
2023-03-30T13:06:31.980Z,10
2023-03-30T13:07:41.346Z,12
2023-03-30T13:08:48.065Z,12
2023-03-30T13:10:04.170Z,13
2023-03-30T13:11:19.543Z,14
2023-03-30T13:12:26.382Z,13
2023-03-30T13:13:33.153Z,12
2023-03-30T13:14:47.779Z,14
2023-03-30T13:16:00.214Z,15
2023-03-30T13:17:07.125Z,12
2023-03-30T13:18:16.853Z,12
2023-03-30T13:19:31.479Z,13
2023-03-30T13:20:38.298Z,13
2023-03-30T13:21:50.133Z,13
2023-03-30T13:23:07.035Z,12
2023-03-30T13:24:13.855Z,15
2023-03-30T13:25:30.802Z,14
2023-03-30T13:26:43.286Z,11
2023-03-30T13:27:50.081Z,14
2023-03-30T13:28:56.878Z,13
2023-03-30T13:30:06.544Z,14
2023-03-30T13:31:13.635Z,14
2023-03-30T13:32:25.440Z,15
2023-03-30T13:33:42.345Z,12
2023-03-30T13:34:58.853Z,14
2023-03-30T13:36:04.375Z,14
2023-03-30T13:37:16.179Z,14
2023-03-30T13:38:25.716Z,13
2023-03-30T13:39:42.866Z,13
2023-03-30T13:42:04.329Z,12
2023-03-30T13:43:14.337Z,13
2023-03-30T13:44:21.235Z,13
2023-03-30T13:45:35.955Z,16
2023-03-30T13:46:52.779Z,13
2023-03-30T13:48:04.579Z,14
2023-03-30T13:49:14.474Z,15
2023-03-30T13:50:31.391Z,10
2023-03-30T13:51:38.276Z,12
2023-03-30T13:52:47.887Z,13
2023-03-30T13:53:54.512Z,12
2023-03-30T13:55:06.567Z,12
2023-03-30T13:56:13.306Z,12
2023-03-30T13:57:20.358Z,13
2023-03-30T13:58:32.198Z,12
2023-03-30T13:59:39.184Z,12
2023-03-30T14:00:48.100Z,12
2023-03-30T14:02:03.019Z,13
2023-03-30T14:03:09.745Z,12
2023-03-30T14:04:21.607Z,11
2023-03-30T14:05:28.458Z,12
2023-03-30T14:06:35.201Z,11
2023-03-30T14:07:47.053Z,14
2023-03-30T14:08:53.821Z,13
2023-03-30T14:10:08.559Z,12
2023-03-30T14:11:18.242Z,12
2023-03-30T14:12:30.346Z,14
2023-03-30T14:13:37.107Z,11
2023-03-30T14:14:43.875Z,14
2023-03-30T14:15:50.641Z,12
2023-03-30T14:16:57.496Z,13
2023-03-30T14:18:04.398Z,12
2023-03-30T14:19:11.144Z,11
2023-03-30T14:20:22.995Z,15
2023-03-30T14:21:37.632Z,15
2023-03-30T14:22:47.282Z,12
2023-03-30T14:23:54.087Z,12
2023-03-30T14:25:00.981Z,11
2023-03-30T14:26:08.104Z,13
2023-03-30T14:27:14.826Z,12
2023-03-30T14:28:21.589Z,12
2023-03-30T14:29:31.188Z,14
2023-03-30T14:30:35.221Z,13
2023-03-30T14:31:42.113Z,18
2023-03-30T14:32:49.026Z,15
2023-03-30T14:34:05.862Z,16
2023-03-30T14:35:22.754Z,15
2023-03-30T14:36:29.519Z,15
2023-03-30T14:37:36.348Z,18
2023-03-30T14:38:43.076Z,16
2023-03-30T14:39:49.862Z,20
2023-03-30T14:40:56.681Z,18
2023-03-30T14:42:03.501Z,18
2023-03-30T14:43:12.964Z,16
2023-03-30T14:44:19.803Z,17
2023-03-30T14:45:26.584Z,17
2023-03-30T14:46:33.415Z,17
2023-03-30T14:47:42.991Z,19
2023-03-30T14:48:50.759Z,16
2023-03-30T14:49:56.584Z,17
2023-03-30T14:51:03.434Z,16
2023-03-30T14:52:23.034Z,20
2023-03-30T14:53:29.880Z,15
2023-03-30T14:54:36.727Z,17
2023-03-30T14:55:43.462Z,18
2023-03-30T14:56:50.266Z,15
2023-03-30T14:58:02.093Z,16
2023-03-30T14:59:08.846Z,16
2023-03-30T15:00:15.661Z,17
2023-03-30T15:01:25.426Z,16
2023-03-30T15:02:32.238Z,15
2023-03-30T15:03:39.027Z,16
2023-03-30T15:04:45.907Z,16
2023-03-30T15:05:52.730Z,15
2023-03-30T15:06:59.541Z,18
2023-03-30T15:08:06.406Z,16
2023-03-30T15:09:16.051Z,16
2023-03-30T15:10:22.848Z,16
2023-03-30T15:11:37.835Z,15
2023-03-30T15:12:44.641Z,16
2023-03-30T15:13:51.435Z,17
2023-03-30T15:14:58.283Z,18
2023-03-30T15:16:05.072Z,14
2023-03-30T15:17:11.957Z,15
2023-03-30T15:18:21.496Z,14
2023-03-30T15:19:28.427Z,16
2023-03-30T15:20:35.176Z,15
2023-03-30T15:21:42.167Z,16
2023-03-30T15:22:48.956Z,16
2023-03-30T15:23:55.733Z,18
2023-03-30T15:25:02.653Z,20
2023-03-30T15:26:09.532Z,18
2023-03-30T15:27:16.333Z,21
2023-03-30T15:28:23.078Z,20
2023-03-30T15:29:29.944Z,19
2023-03-30T15:30:36.791Z,16
2023-03-30T15:31:46.306Z,20
2023-03-30T15:33:00.803Z,21
2023-03-30T15:34:07.776Z,22
2023-03-30T15:35:17.531Z,21
2023-03-30T15:36:24.417Z,17
2023-03-30T15:37:36.271Z,19
2023-03-30T15:38:43.275Z,17
2023-03-30T15:39:53.022Z,14
2023-03-30T15:40:59.822Z,16
2023-03-30T15:42:06.593Z,17
2023-03-30T15:43:13.448Z,15
2023-03-30T15:44:22.826Z,15
2023-03-30T15:45:29.575Z,16
2023-03-30T15:46:36.457Z,13
2023-03-30T15:47:43.340Z,14
2023-03-30T15:48:50.081Z,19
2023-03-30T15:49:56.899Z,14
2023-03-30T15:51:03.866Z,17
2023-03-30T15:52:15.547Z,15
2023-03-30T15:53:24.976Z,14
2023-03-30T15:54:36.880Z,14
2023-03-30T15:55:46.756Z,16
2023-03-30T15:56:53.639Z,15
2023-03-30T15:58:05.485Z,14
2023-03-30T15:59:12.252Z,16
2023-03-30T16:00:20.552Z,14
2023-03-30T16:01:25.952Z,15
2023-03-30T16:02:37.791Z,16
2023-03-30T16:03:44.543Z,16
2023-03-30T16:04:54.245Z,18
2023-03-30T16:06:00.946Z,21
2023-03-30T16:07:07.838Z,16
2023-03-30T16:08:19.678Z,19
2023-03-30T16:09:26.498Z,21
2023-03-30T16:10:33.311Z,23
2023-03-30T16:11:40.150Z,19
2023-03-30T16:12:47.009Z,21
2023-03-30T16:13:53.783Z,22
2023-03-30T16:15:00.583Z,23
2023-03-30T16:16:07.651Z,22
2023-03-30T16:17:14.315Z,22
2023-03-30T16:18:21.157Z,23
2023-03-30T16:19:29.028Z,27
2023-03-30T16:20:35.857Z,23
2023-03-30T16:21:44.747Z,22
2023-03-30T16:22:49.395Z,23
2023-03-30T16:23:56.262Z,24
2023-03-30T16:25:03.118Z,25
2023-03-30T16:26:10.168Z,24
2023-03-30T16:27:17.014Z,26
2023-03-30T16:28:23.833Z,26
2023-03-30T16:29:30.827Z,25
2023-03-30T16:30:37.612Z,24
2023-03-30T16:31:44.538Z,27
2023-03-30T16:32:51.270Z,26
2023-03-30T16:33:58.016Z,25
2023-03-30T16:35:04.975Z,26
2023-03-30T16:36:11.886Z,24
2023-03-30T16:37:18.696Z,26
2023-03-30T16:38:25.458Z,22
2023-03-30T16:39:32.212Z,23